sensor_id;sensor_type;location;lat;lon;timestamp;P1;durP1;ratioP1;P2;durP2;ratioP2
39276;SDS011;63149;48.086;-1.606;2022-12-29T06:01:22;22.23;;;3.03;;
39276;SDS011;63149;48.086;-1.606;2022-12-29T06:03:49;24.52;;;3.40;;
39276;SDS011;63149;48.086;-1.606;2022-12-29T06:06:16;22.13;;;3.47;;
39276;SDS011;63149;48.086;-1.606;2022-12-29T06:08:42;22.65;;;2.88;;
39276;SDS011;63149;48.086;-1.606;2022-12-29T06:11:09;30.70;;;4.13;;
39276;SDS011;63149;48.086;-1.606;2022-12-29T06:13:36;25.70;;;3.92;;
39276;SDS011;63149;48.086;-1.606;2022-12-29T06:16:04;26.98;;;3.28;;
39276;SDS011;63149;48.086;-1.606;2022-12-29T06:18:33;26.45;;;3.63;;
39276;SDS011;63149;48.086;-1.606;2022-12-29T06:21:00;21.52;;;4.15;;
39276;SDS011;63149;48.086;-1.606;2022-12-29T06:23:27;23.75;;;3.78;;
39276;SDS011;63149;48.086;-1.606;2022-12-29T06:25:54;32.97;;;3.80;;
39276;SDS011;63149;48.086;-1.606;2022-12-29T06:28:22;22.73;;;2.95;;
39276;SDS011;63149;48.086;-1.606;2022-12-29T06:30:50;38.60;;;5.10;;
39276;SDS011;63149;48.086;-1.606;2022-12-29T06:33:16;31.48;;;5.53;;
39276;SDS011;63149;48.086;-1.606;2022-12-29T06:35:45;31.65;;;3.70;;
39276;SDS011;63149;48.086;-1.606;2022-12-29T06:38:12;26.15;;;3.38;;
39276;SDS011;63149;48.086;-1.606;2022-12-29T06:40:39;22.48;;;4.55;;
39276;SDS011;63149;48.086;-1.606;2022-12-29T06:43:08;22.05;;;3.17;;
39276;SDS011;63149;48.086;-1.606;2022-12-29T06:45:35;24.88;;;3.40;;
39276;SDS011;63149;48.086;-1.606;2022-12-29T06:48:04;15.52;;;2.88;;
39276;SDS011;63149;48.086;-1.606;2022-12-29T06:50:31;34.22;;;4.03;;
39276;SDS011;63149;48.086;-1.606;2022-12-29T06:52:59;33.50;;;3.53;;
39276;SDS011;63149;48.086;-1.606;2022-12-29T06:55:26;26.02;;;3.65;;
39276;SDS011;63149;48.086;-1.606;2022-12-29T06:57:53;21.88;;;4.25;;
39276;SDS011;63149;48.086;-1.606;2022-12-29T07:00:21;28.05;;;3.22;;
39276;SDS011;63149;48.086;-1.606;2022-12-29T07:02:48;29.40;;;3.65;;
39276;SDS011;63149;48.086;-1.606;2022-12-29T07:05:15;26.15;;;4.68;;
39276;SDS011;63149;48.086;-1.606;2022-12-29T07:07:42;27.83;;;3.20;;
39276;SDS011;63149;48.086;-1.606;2022-12-29T07:10:10;24.20;;;3.88;;
39276;SDS011;63149;48.086;-1.606;2022-12-29T07:12:37;31.30;;;3.78;;
39276;SDS011;63149;48.086;-1.606;2022-12-29T07:15:04;27.48;;;3.33;;
39276;SDS011;63149;48.086;-1.606;2022-12-29T07:17:32;31.35;;;5.07;;
39276;SDS011;63149;48.086;-1.606;2022-12-29T07:19:59;29.10;;;5.18;;
39276;SDS011;63149;48.086;-1.606;2022-12-29T07:22:26;37.05;;;4.10;;
39276;SDS011;63149;48.086;-1.606;2022-12-29T07:24:52;29.65;;;3.95;;
39276;SDS011;63149;48.086;-1.606;2022-12-29T07:27:21;23.70;;;3.60;;
39276;SDS011;63149;48.086;-1.606;2022-12-29T07:29:48;30.50;;;3.58;;
39276;SDS011;63149;48.086;-1.606;2022-12-29T07:32:15;34.40;;;3.40;;
39276;SDS011;63149;48.086;-1.606;2022-12-29T07:34:42;34.40;;;4.10;;
39276;SDS011;63149;48.086;-1.606;2022-12-29T07:37:10;23.83;;;4.75;;
39276;SDS011;63149;48.086;-1.606;2022-12-29T07:39:37;25.02;;;4.80;;
39276;SDS011;63149;48.086;-1.606;2022-12-29T07:42:04;23.08;;;4.20;;
39276;SDS011;63149;48.086;-1.606;2022-12-29T07:44:32;25.98;;;4.38;;
39276;SDS011;63149;48.086;-1.606;2022-12-29T07:46:59;37.08;;;4.10;;
39276;SDS011;63149;48.086;-1.606;2022-12-29T07:49:26;22.20;;;3.78;;
39276;SDS011;63149;48.086;-1.606;2022-12-29T07:51:53;40.97;;;4.55;;
39276;SDS011;63149;48.086;-1.606;2022-12-29T07:54:20;28.92;;;3.50;;
39276;SDS011;63149;48.086;-1.606;2022-12-29T07:56:47;38.10;;;3.88;;
39276;SDS011;63149;48.086;-1.606;2022-12-29T07:59:14;23.55;;;3.08;;
39276;SDS011;63149;48.086;-1.606;2022-12-29T08:01:42;28.33;;;4.20;;
39276;SDS011;63149;48.086;-1.606;2022-12-29T08:04:09;29.58;;;4.22;;
39276;SDS011;63149;48.086;-1.606;2022-12-29T08:06:36;26.77;;;5.00;;
39276;SDS011;63149;48.086;-1.606;2022-12-29T08:09:03;26.70;;;3.65;;
39276;SDS011;63149;48.086;-1.606;2022-12-29T08:11:30;26.95;;;4.10;;
39276;SDS011;63149;48.086;-1.606;2022-12-29T08:13:57;23.85;;;4.07;;
39276;SDS011;63149;48.086;-1.606;2022-12-29T08:16:24;25.15;;;3.95;;
39276;SDS011;63149;48.086;-1.606;2022-12-29T08:18:53;27.70;;;3.25;;
39276;SDS011;63149;48.086;-1.606;2022-12-29T08:21:19;27.90;;;5.05;;
39276;SDS011;63149;48.086;-1.606;2022-12-29T08:23:46;26.88;;;3.30;;
39276;SDS011;63149;48.086;-1.606;2022-12-29T08:26:13;24.10;;;3.58;;
39276;SDS011;63149;48.086;-1.606;2022-12-29T08:28:40;35.90;;;3.78;;
39276;SDS011;63149;48.086;-1.606;2022-12-29T08:31:07;25.02;;;3.65;;
39276;SDS011;63149;48.086;-1.606;2022-12-29T08:33:34;26.95;;;3.33;;
39276;SDS011;63149;48.086;-1.606;2022-12-29T08:36:03;17.25;;;2.88;;
39276;SDS011;63149;48.086;-1.606;2022-12-29T08:38:32;34.60;;;4.07;;
39276;SDS011;63149;48.086;-1.606;2022-12-29T08:40:59;26.73;;;4.65;;
39276;SDS011;63149;48.086;-1.606;2022-12-29T08:43:27;31.25;;;3.83;;
39276;SDS011;63149;48.086;-1.606;2022-12-29T08:45:54;28.58;;;3.83;;
39276;SDS011;63149;48.086;-1.606;2022-12-29T08:48:21;34.60;;;4.60;;
39276;SDS011;63149;48.086;-1.606;2022-12-29T08:50:48;40.50;;;5.30;;
39276;SDS011;63149;48.086;-1.606;2022-12-29T08:53:17;24.05;;;3.65;;
39276;SDS011;63149;48.086;-1.606;2022-12-29T08:55:44;32.88;;;4.45;;
39276;SDS011;63149;48.086;-1.606;2022-12-29T08:58:11;30.67;;;4.28;;
39276;SDS011;63149;48.086;-1.606;2022-12-29T09:00:39;33.10;;;4.60;;
39276;SDS011;63149;48.086;-1.606;2022-12-29T09:03:06;32.03;;;5.32;;
39276;SDS011;63149;48.086;-1.606;2022-12-29T09:05:33;33.15;;;3.88;;
39276;SDS011;63149;48.086;-1.606;2022-12-29T09:08:00;36.50;;;3.90;;
39276;SDS011;63149;48.086;-1.606;2022-12-29T09:10:28;26.95;;;3.97;;
39276;SDS011;63149;48.086;-1.606;2022-12-29T09:12:56;29.95;;;4.20;;
39276;SDS011;63149;48.086;-1.606;2022-12-29T09:15:23;26.73;;;3.20;;
39276;SDS011;63149;48.086;-1.606;2022-12-29T09:17:49;28.35;;;4.07;;
39276;SDS011;63149;48.086;-1.606;2022-12-29T09:20:17;27.17;;;4.32;;
39276;SDS011;63149;48.086;-1.606;2022-12-29T09:22:45;33.17;;;3.63;;
39276;SDS011;63149;48.086;-1.606;2022-12-29T09:25:12;22.88;;;3.60;;
39276;SDS011;63149;48.086;-1.606;2022-12-29T09:27:41;31.13;;;4.50;;
39276;SDS011;63149;48.086;-1.606;2022-12-29T09:30:09;26.85;;;3.95;;
39276;SDS011;63149;48.086;-1.606;2022-12-29T09:32:37;24.75;;;3.60;;
39276;SDS011;63149;48.086;-1.606;2022-12-29T09:35:04;33.33;;;4.88;;
39276;SDS011;63149;48.086;-1.606;2022-12-29T09:37:32;25.48;;;3.30;;
39276;SDS011;63149;48.086;-1.606;2022-12-29T09:39:59;31.77;;;4.05;;
39276;SDS011;63149;48.086;-1.606;2022-12-29T09:42:27;28.38;;;3.30;;
39276;SDS011;63149;48.086;-1.606;2022-12-29T09:45:06;25.85;;;3.33;;
39276;SDS011;63149;48.086;-1.606;2022-12-29T09:47:39;23.90;;;3.50;;
39276;SDS011;63149;48.086;-1.606;2022-12-29T09:50:20;24.02;;;3.92;;
39276;SDS011;63149;48.086;-1.606;2022-12-29T09:52:53;15.30;;;3.58;;
39276;SDS011;63149;48.086;-1.606;2022-12-29T09:55:26;26.33;;;3.58;;
39276;SDS011;63149;48.086;-1.606;2022-12-29T09:57:58;23.08;;;3.25;;
39276;SDS011;63149;48.086;-1.606;2022-12-29T10:00:33;16.98;;;2.60;;
39276;SDS011;63149;48.086;-1.606;2022-12-29T10:03:05;23.73;;;3.28;;
39276;SDS011;63149;48.086;-1.606;2022-12-29T10:05:41;19.85;;;3.50;;
39276;SDS011;63149;48.086;-1.606;2022-12-29T10:08:19;25.30;;;4.72;;
39276;SDS011;63149;48.086;-1.606;2022-12-29T10:10:56;22.50;;;3.83;;
39276;SDS011;63149;48.086;-1.606;2022-12-29T10:13:30;26.15;;;3.38;;
39276;SDS011;63149;48.086;-1.606;2022-12-29T10:16:11;17.58;;;2.75;;
39276;SDS011;63149;48.086;-1.606;2022-12-29T10:19:00;24.83;;;4.13;;
39276;SDS011;63149;48.086;-1.606;2022-12-29T10:21:43;17.63;;;3.33;;
39276;SDS011;63149;48.086;-1.606;2022-12-29T10:24:18;24.75;;;2.90;;
39276;SDS011;63149;48.086;-1.606;2022-12-29T10:26:47;17.88;;;2.60;;
39276;SDS011;63149;48.086;-1.606;2022-12-29T10:29:18;16.73;;;2.88;;
39276;SDS011;63149;48.086;-1.606;2022-12-29T10:31:48;23.63;;;3.85;;
39276;SDS011;63149;48.086;-1.606;2022-12-29T10:34:22;17.50;;;3.92;;
39276;SDS011;63149;48.086;-1.606;2022-12-29T10:39:22;13.60;;;2.55;;
39276;SDS011;63149;48.086;-1.606;2022-12-29T10:41:56;25.95;;;4.03;;
39276;SDS011;63149;48.086;-1.606;2022-12-29T10:44:29;16.90;;;3.33;;
39276;SDS011;63149;48.086;-1.606;2022-12-29T10:47:02;16.27;;;3.15;;
39276;SDS011;63149;48.086;-1.606;2022-12-29T10:49:34;18.08;;;3.00;;
39276;SDS011;63149;48.086;-1.606;2022-12-29T10:52:06;18.88;;;2.90;;
39276;SDS011;63149;48.086;-1.606;2022-12-29T10:54:36;24.00;;;3.20;;
39276;SDS011;63149;48.086;-1.606;2022-12-29T10:57:08;15.75;;;4.13;;
39276;SDS011;63149;48.086;-1.606;2022-12-29T11:02:18;16.42;;;3.03;;
39276;SDS011;63149;48.086;-1.606;2022-12-29T11:05:03;21.38;;;3.58;;
39276;SDS011;63149;48.086;-1.606;2022-12-29T11:07:37;17.42;;;3.95;;
39276;SDS011;63149;48.086;-1.606;2022-12-29T11:10:18;17.98;;;3.28;;
39276;SDS011;63149;48.086;-1.606;2022-12-29T11:12:57;20.05;;;3.90;;
39276;SDS011;63149;48.086;-1.606;2022-12-29T11:15:26;24.70;;;4.10;;
39276;SDS011;63149;48.086;-1.606;2022-12-29T11:17:56;22.00;;;3.63;;
39276;SDS011;63149;48.086;-1.606;2022-12-29T11:20:32;17.65;;;3.25;;
39276;SDS011;63149;48.086;-1.606;2022-12-29T11:23:00;19.23;;;3.75;;
39276;SDS011;63149;48.086;-1.606;2022-12-29T11:25:28;25.13;;;4.07;;
39276;SDS011;63149;48.086;-1.606;2022-12-29T11:27:56;24.48;;;3.55;;
39276;SDS011;63149;48.086;-1.606;2022-12-29T11:30:25;19.58;;;4.30;;
39276;SDS011;63149;48.086;-1.606;2022-12-29T11:32:55;20.45;;;4.25;;
39276;SDS011;63149;48.086;-1.606;2022-12-29T11:35:29;24.40;;;4.30;;
39276;SDS011;63149;48.086;-1.606;2022-12-29T11:37:59;23.02;;;4.50;;
39276;SDS011;63149;48.086;-1.606;2022-12-29T11:40:27;27.40;;;4.18;;
39276;SDS011;63149;48.086;-1.606;2022-12-29T11:42:55;26.52;;;3.70;;
39276;SDS011;63149;48.086;-1.606;2022-12-29T11:45:24;19.70;;;3.80;;
39276;SDS011;63149;48.086;-1.606;2022-12-29T11:47:56;12.38;;;2.70;;
39276;SDS011;63149;48.086;-1.606;2022-12-29T11:50:27;27.98;;;5.82;;
39276;SDS011;63149;48.086;-1.606;2022-12-29T11:52:57;23.58;;;4.25;;
39276;SDS011;63149;48.086;-1.606;2022-12-29T11:55:26;22.27;;;3.45;;
39276;SDS011;63149;48.086;-1.606;2022-12-29T11:57:55;24.38;;;3.38;;
39276;SDS011;63149;48.086;-1.606;2022-12-29T12:00:27;25.05;;;3.65;;
39276;SDS011;63149;48.086;-1.606;2022-12-29T12:02:58;20.88;;;4.38;;
39276;SDS011;63149;48.086;-1.606;2022-12-29T12:05:33;27.63;;;4.90;;
39276;SDS011;63149;48.086;-1.606;2022-12-29T12:08:09;22.73;;;3.80;;
39276;SDS011;63149;48.086;-1.606;2022-12-29T12:10:42;24.92;;;4.45;;
39276;SDS011;63149;48.086;-1.606;2022-12-29T12:13:17;22.70;;;3.55;;
39276;SDS011;63149;48.086;-1.606;2022-12-29T12:15:50;22.23;;;3.45;;
39276;SDS011;63149;48.086;-1.606;2022-12-29T12:18:24;30.27;;;5.10;;
39276;SDS011;63149;48.086;-1.606;2022-12-29T12:21:04;19.38;;;3.15;;
39276;SDS011;63149;48.086;-1.606;2022-12-29T12:23:39;19.13;;;3.55;;
39276;SDS011;63149;48.086;-1.606;2022-12-29T12:26:13;16.75;;;3.60;;
39276;SDS011;63149;48.086;-1.606;2022-12-29T12:28:46;21.10;;;4.30;;
39276;SDS011;63149;48.086;-1.606;2022-12-29T12:31:22;18.45;;;3.53;;
39276;SDS011;63149;48.086;-1.606;2022-12-29T12:34:01;26.60;;;3.38;;
39276;SDS011;63149;48.086;-1.606;2022-12-29T12:36:43;18.50;;;4.38;;
39276;SDS011;63149;48.086;-1.606;2022-12-29T12:39:32;17.58;;;2.92;;
39276;SDS011;63149;48.086;-1.606;2022-12-29T12:42:10;14.18;;;3.15;;
39276;SDS011;63149;48.086;-1.606;2022-12-29T12:44:47;20.48;;;3.22;;
39276;SDS011;63149;48.086;-1.606;2022-12-29T12:47:33;19.60;;;3.55;;
39276;SDS011;63149;48.086;-1.606;2022-12-29T12:50:22;18.55;;;4.30;;
39276;SDS011;63149;48.086;-1.606;2022-12-29T12:53:06;23.88;;;3.30;;
39276;SDS011;63149;48.086;-1.606;2022-12-29T12:58:52;22.38;;;4.22;;
39276;SDS011;63149;48.086;-1.606;2022-12-29T13:01:29;24.95;;;4.65;;
39276;SDS011;63149;48.086;-1.606;2022-12-29T13:07:15;15.98;;;4.05;;
39276;SDS011;63149;48.086;-1.606;2022-12-29T13:09:52;26.10;;;4.55;;
39276;SDS011;63149;48.086;-1.606;2022-12-29T13:12:31;26.30;;;4.50;;
39276;SDS011;63149;48.086;-1.606;2022-12-29T13:15:09;19.65;;;3.30;;
39276;SDS011;63149;48.086;-1.606;2022-12-29T13:17:45;20.63;;;3.10;;
39276;SDS011;63149;48.086;-1.606;2022-12-29T13:20:20;27.00;;;4.38;;
39276;SDS011;63149;48.086;-1.606;2022-12-29T13:22:56;25.08;;;3.65;;
39276;SDS011;63149;48.086;-1.606;2022-12-29T13:25:31;12.35;;;2.58;;
39276;SDS011;63149;48.086;-1.606;2022-12-29T13:28:04;14.75;;;2.63;;
39276;SDS011;63149;48.086;-1.606;2022-12-29T13:30:39;15.93;;;2.50;;
39276;SDS011;63149;48.086;-1.606;2022-12-29T13:33:13;17.70;;;3.00;;
39276;SDS011;63149;48.086;-1.606;2022-12-29T13:35:51;15.52;;;2.55;;
39276;SDS011;63149;48.086;-1.606;2022-12-29T13:38:25;14.05;;;2.42;;
39276;SDS011;63149;48.086;-1.606;2022-12-29T13:40:56;8.02;;;2.13;;
39276;SDS011;63149;48.086;-1.606;2022-12-29T13:43:27;12.00;;;1.80;;
39276;SDS011;63149;48.086;-1.606;2022-12-29T13:45:59;8.77;;;1.80;;
39276;SDS011;63149;48.086;-1.606;2022-12-29T13:51:00;7.38;;;1.48;;
39276;SDS011;63149;48.086;-1.606;2022-12-29T13:53:33;10.18;;;1.85;;
39276;SDS011;63149;48.086;-1.606;2022-12-29T13:56:06;9.98;;;2.17;;
39276;SDS011;63149;48.086;-1.606;2022-12-29T13:58:39;12.15;;;2.40;;
39276;SDS011;63149;48.086;-1.606;2022-12-29T14:01:12;14.18;;;2.40;;
39276;SDS011;63149;48.086;-1.606;2022-12-29T14:03:47;9.13;;;1.73;;
39276;SDS011;63149;48.086;-1.606;2022-12-29T14:06:16;7.35;;;2.67;;
39276;SDS011;63149;48.086;-1.606;2022-12-29T14:08:51;10.88;;;1.50;;
39276;SDS011;63149;48.086;-1.606;2022-12-29T14:11:21;8.60;;;1.60;;
39276;SDS011;63149;48.086;-1.606;2022-12-29T14:13:51;9.13;;;2.63;;
39276;SDS011;63149;48.086;-1.606;2022-12-29T14:16:26;10.82;;;2.22;;
39276;SDS011;63149;48.086;-1.606;2022-12-29T14:18:56;11.00;;;1.80;;
39276;SDS011;63149;48.086;-1.606;2022-12-29T14:21:30;14.95;;;2.45;;
39276;SDS011;63149;48.086;-1.606;2022-12-29T14:30:11;13.35;;;2.33;;
39276;SDS011;63149;48.086;-1.606;2022-12-29T14:33:15;8.57;;;2.40;;
39276;SDS011;63149;48.086;-1.606;2022-12-29T14:35:44;11.38;;;1.50;;
39276;SDS011;63149;48.086;-1.606;2022-12-29T14:38:27;7.82;;;2.33;;
39276;SDS011;63149;48.086;-1.606;2022-12-29T14:41:16;11.02;;;2.33;;
39276;SDS011;63149;48.086;-1.606;2022-12-29T14:43:54;5.80;;;1.48;;
39276;SDS011;63149;48.086;-1.606;2022-12-29T14:46:41;12.80;;;2.10;;
39276;SDS011;63149;48.086;-1.606;2022-12-29T14:49:14;11.40;;;2.13;;
39276;SDS011;63149;48.086;-1.606;2022-12-29T14:51:44;12.80;;;1.65;;
39276;SDS011;63149;48.086;-1.606;2022-12-29T14:57:24;10.25;;;1.80;;
39276;SDS011;63149;48.086;-1.606;2022-12-29T14:59:55;10.10;;;2.92;;
39276;SDS011;63149;48.086;-1.606;2022-12-29T15:02:33;15.07;;;2.00;;
39276;SDS011;63149;48.086;-1.606;2022-12-29T15:05:04;7.70;;;2.05;;
39276;SDS011;63149;48.086;-1.606;2022-12-29T15:07:46;10.07;;;2.40;;
39276;SDS011;63149;48.086;-1.606;2022-12-29T15:10:13;8.95;;;2.10;;
39276;SDS011;63149;48.086;-1.606;2022-12-29T15:12:47;10.40;;;1.90;;
39276;SDS011;63149;48.086;-1.606;2022-12-29T15:15:20;17.63;;;3.55;;
39276;SDS011;63149;48.086;-1.606;2022-12-29T15:17:48;16.00;;;2.83;;
39276;SDS011;63149;48.086;-1.606;2022-12-29T15:20:25;11.10;;;2.72;;
39276;SDS011;63149;48.086;-1.606;2022-12-29T15:22:54;13.07;;;2.15;;
39276;SDS011;63149;48.086;-1.606;2022-12-29T15:25:22;17.27;;;3.90;;
39276;SDS011;63149;48.086;-1.606;2022-12-29T15:27:53;17.13;;;2.78;;
39276;SDS011;63149;48.086;-1.606;2022-12-29T15:30:23;21.15;;;3.38;;
39276;SDS011;63149;48.086;-1.606;2022-12-29T15:32:50;12.75;;;2.80;;
39276;SDS011;63149;48.086;-1.606;2022-12-29T15:35:28;13.95;;;2.90;;
39276;SDS011;63149;48.086;-1.606;2022-12-29T15:37:57;16.15;;;3.55;;
39276;SDS011;63149;48.086;-1.606;2022-12-29T15:45:49;15.48;;;2.97;;
39276;SDS011;63149;48.086;-1.606;2022-12-29T15:48:19;12.52;;;1.80;;
39276;SDS011;63149;48.086;-1.606;2022-12-29T15:50:47;12.40;;;1.92;;
39276;SDS011;63149;48.086;-1.606;2022-12-29T15:53:17;16.25;;;1.83;;
39276;SDS011;63149;48.086;-1.606;2022-12-29T15:55:49;8.38;;;1.95;;
39276;SDS011;63149;48.086;-1.606;2022-12-29T15:58:22;4.13;;;1.48;;
39276;SDS011;63149;48.086;-1.606;2022-12-29T16:00:50;10.35;;;1.70;;
39276;SDS011;63149;48.086;-1.606;2022-12-29T16:03:19;7.90;;;1.75;;
39276;SDS011;63149;48.086;-1.606;2022-12-29T16:05:49;8.23;;;1.75;;
39276;SDS011;63149;48.086;-1.606;2022-12-29T16:08:22;15.43;;;2.03;;
39276;SDS011;63149;48.086;-1.606;2022-12-29T16:10:57;11.48;;;1.85;;
39276;SDS011;63149;48.086;-1.606;2022-12-29T16:13:28;14.38;;;2.63;;
39276;SDS011;63149;48.086;-1.606;2022-12-29T16:15:59;7.65;;;1.40;;
39276;SDS011;63149;48.086;-1.606;2022-12-29T16:18:29;12.38;;;1.90;;
39276;SDS011;63149;48.086;-1.606;2022-12-29T16:20:59;8.68;;;2.00;;
39276;SDS011;63149;48.086;-1.606;2022-12-29T16:23:27;7.97;;;1.85;;
39276;SDS011;63149;48.086;-1.606;2022-12-29T16:25:55;13.70;;;1.90;;
39276;SDS011;63149;48.086;-1.606;2022-12-29T16:28:24;8.13;;;1.60;;
39276;SDS011;63149;48.086;-1.606;2022-12-29T16:30:58;16.00;;;2.80;;
39276;SDS011;63149;48.086;-1.606;2022-12-29T16:33:32;7.10;;;2.35;;
39276;SDS011;63149;48.086;-1.606;2022-12-29T16:39:05;9.00;;;1.90;;
39276;SDS011;63149;48.086;-1.606;2022-12-29T16:41:49;8.93;;;2.53;;
39276;SDS011;63149;48.086;-1.606;2022-12-29T16:44:17;15.80;;;3.25;;
39276;SDS011;63149;48.086;-1.606;2022-12-29T16:46:57;14.90;;;3.35;;
39276;SDS011;63149;48.086;-1.606;2022-12-29T16:49:27;14.20;;;3.92;;
39276;SDS011;63149;48.086;-1.606;2022-12-29T16:51:56;9.82;;;2.95;;
39276;SDS011;63149;48.086;-1.606;2022-12-29T16:54:24;13.40;;;3.63;;
39276;SDS011;63149;48.086;-1.606;2022-12-29T16:56:54;12.43;;;3.63;;
39276;SDS011;63149;48.086;-1.606;2022-12-29T16:59:26;11.63;;;3.28;;
39276;SDS011;63149;48.086;-1.606;2022-12-29T17:01:59;14.32;;;3.40;;
39276;SDS011;63149;48.086;-1.606;2022-12-29T17:04:31;8.75;;;2.97;;
39276;SDS011;63149;48.086;-1.606;2022-12-29T17:06:58;12.70;;;3.53;;
39276;SDS011;63149;48.086;-1.606;2022-12-29T17:09:25;6.75;;;1.95;;
39276;SDS011;63149;48.086;-1.606;2022-12-29T17:11:54;9.48;;;2.40;;
39276;SDS011;63149;48.086;-1.606;2022-12-29T17:14:30;10.82;;;2.45;;
39276;SDS011;63149;48.086;-1.606;2022-12-29T17:17:05;8.60;;;1.70;;
39276;SDS011;63149;48.086;-1.606;2022-12-29T17:19:36;6.60;;;1.80;;
39276;SDS011;63149;48.086;-1.606;2022-12-29T17:22:09;7.43;;;1.80;;
39276;SDS011;63149;48.086;-1.606;2022-12-29T17:24:38;13.82;;;2.28;;
39276;SDS011;63149;48.086;-1.606;2022-12-29T17:27:05;4.65;;;2.20;;
39276;SDS011;63149;48.086;-1.606;2022-12-29T17:29:32;10.90;;;2.90;;
39276;SDS011;63149;48.086;-1.606;2022-12-29T17:32:02;16.23;;;4.43;;
39276;SDS011;63149;48.086;-1.606;2022-12-29T17:34:35;12.00;;;2.90;;
39276;SDS011;63149;48.086;-1.606;2022-12-29T17:37:02;12.32;;;2.83;;
39276;SDS011;63149;48.086;-1.606;2022-12-29T17:39:36;10.00;;;3.35;;
39276;SDS011;63149;48.086;-1.606;2022-12-29T17:42:03;12.27;;;3.72;;
39276;SDS011;63149;48.086;-1.606;2022-12-29T17:44:30;12.93;;;3.38;;
39276;SDS011;63149;48.086;-1.606;2022-12-29T17:46:57;14.85;;;3.92;;
39276;SDS011;63149;48.086;-1.606;2022-12-29T17:49:26;8.18;;;2.78;;
39276;SDS011;63149;48.086;-1.606;2022-12-29T17:51:53;16.23;;;4.97;;
39276;SDS011;63149;48.086;-1.606;2022-12-29T17:54:21;13.70;;;3.63;;
39276;SDS011;63149;48.086;-1.606;2022-12-29T17:56:49;11.20;;;4.68;;
39276;SDS011;63149;48.086;-1.606;2022-12-29T17:59:16;19.95;;;6.47;;
39276;SDS011;63149;48.086;-1.606;2022-12-29T18:01:46;16.13;;;6.18;;
39276;SDS011;63149;48.086;-1.606;2022-12-29T18:04:14;20.40;;;5.57;;
39276;SDS011;63149;48.086;-1.606;2022-12-29T18:06:44;17.98;;;6.28;;
39276;SDS011;63149;48.086;-1.606;2022-12-29T18:09:12;16.27;;;6.05;;
39276;SDS011;63149;48.086;-1.606;2022-12-29T18:11:41;14.85;;;6.75;;
39276;SDS011;63149;48.086;-1.606;2022-12-29T18:14:10;18.30;;;6.38;;
39276;SDS011;63149;48.086;-1.606;2022-12-29T18:16:38;16.35;;;7.15;;
39276;SDS011;63149;48.086;-1.606;2022-12-29T18:19:05;18.33;;;6.07;;
39276;SDS011;63149;48.086;-1.606;2022-12-29T18:21:33;21.67;;;6.80;;
39276;SDS011;63149;48.086;-1.606;2022-12-29T18:24:02;14.77;;;5.45;;
39276;SDS011;63149;48.086;-1.606;2022-12-29T18:26:29;8.93;;;4.90;;
39276;SDS011;63149;48.086;-1.606;2022-12-29T18:28:59;13.40;;;5.30;;
39276;SDS011;63149;48.086;-1.606;2022-12-29T18:31:27;12.55;;;5.45;;
39276;SDS011;63149;48.086;-1.606;2022-12-29T18:33:56;10.25;;;4.57;;
39276;SDS011;63149;48.086;-1.606;2022-12-29T18:36:24;15.77;;;6.32;;
39276;SDS011;63149;48.086;-1.606;2022-12-29T18:38:53;16.48;;;4.45;;
39276;SDS011;63149;48.086;-1.606;2022-12-29T18:41:22;11.07;;;4.25;;
39276;SDS011;63149;48.086;-1.606;2022-12-29T18:43:50;11.05;;;4.70;;
39276;SDS011;63149;48.086;-1.606;2022-12-29T18:46:18;15.95;;;4.10;;
39276;SDS011;63149;48.086;-1.606;2022-12-29T18:48:45;14.43;;;5.85;;
39276;SDS011;63149;48.086;-1.606;2022-12-29T18:51:13;17.63;;;6.22;;
39276;SDS011;63149;48.086;-1.606;2022-12-29T18:53:41;17.23;;;5.00;;
39276;SDS011;63149;48.086;-1.606;2022-12-29T18:56:08;20.08;;;5.05;;
39276;SDS011;63149;48.086;-1.606;2022-12-29T18:58:37;13.32;;;4.28;;
39276;SDS011;63149;48.086;-1.606;2022-12-29T19:01:05;13.43;;;5.35;;
39276;SDS011;63149;48.086;-1.606;2022-12-29T19:03:32;17.92;;;5.10;;
39276;SDS011;63149;48.086;-1.606;2022-12-29T19:05:59;13.65;;;4.07;;
39276;SDS011;63149;48.086;-1.606;2022-12-29T19:08:26;17.58;;;4.40;;
39276;SDS011;63149;48.086;-1.606;2022-12-29T19:10:53;13.27;;;3.88;;
39276;SDS011;63149;48.086;-1.606;2022-12-29T19:13:21;6.60;;;3.60;;
39276;SDS011;63149;48.086;-1.606;2022-12-29T19:15:54;11.50;;;3.45;;
39276;SDS011;63149;48.086;-1.606;2022-12-29T19:18:22;13.15;;;3.47;;
39276;SDS011;63149;48.086;-1.606;2022-12-29T19:20:51;11.38;;;3.50;;
39276;SDS011;63149;48.086;-1.606;2022-12-29T19:23:20;12.85;;;3.67;;
39276;SDS011;63149;48.086;-1.606;2022-12-29T19:25:48;19.67;;;3.95;;
39276;SDS011;63149;48.086;-1.606;2022-12-29T19:28:17;10.00;;;4.28;;
39276;SDS011;63149;48.086;-1.606;2022-12-29T19:30:46;14.70;;;4.90;;
39276;SDS011;63149;48.086;-1.606;2022-12-29T19:33:15;13.10;;;3.88;;
39276;SDS011;63149;48.086;-1.606;2022-12-29T19:35:43;15.75;;;3.88;;
39276;SDS011;63149;48.086;-1.606;2022-12-29T19:38:10;15.45;;;4.00;;
39276;SDS011;63149;48.086;-1.606;2022-12-29T19:40:40;9.77;;;4.82;;
39276;SDS011;63149;48.086;-1.606;2022-12-29T19:43:08;12.57;;;3.65;;
39276;SDS011;63149;48.086;-1.606;2022-12-29T19:45:37;15.45;;;4.07;;
39276;SDS011;63149;48.086;-1.606;2022-12-29T19:48:05;20.35;;;5.82;;
39276;SDS011;63149;48.086;-1.606;2022-12-29T19:50:33;24.73;;;5.45;;
39276;SDS011;63149;48.086;-1.606;2022-12-29T19:53:00;17.95;;;5.20;;
39276;SDS011;63149;48.086;-1.606;2022-12-29T19:55:27;13.65;;;4.40;;
39276;SDS011;63149;48.086;-1.606;2022-12-29T19:57:54;17.45;;;4.72;;
39276;SDS011;63149;48.086;-1.606;2022-12-29T20:00:21;17.10;;;4.40;;
39276;SDS011;63149;48.086;-1.606;2022-12-29T20:02:49;17.75;;;4.63;;
39276;SDS011;63149;48.086;-1.606;2022-12-29T20:05:16;18.90;;;4.60;;
39276;SDS011;63149;48.086;-1.606;2022-12-29T20:07:44;12.98;;;4.72;;
39276;SDS011;63149;48.086;-1.606;2022-12-29T20:10:11;13.98;;;5.00;;
39276;SDS011;63149;48.086;-1.606;2022-12-29T20:12:38;13.88;;;4.60;;
39276;SDS011;63149;48.086;-1.606;2022-12-29T20:15:06;13.05;;;4.43;;
39276;SDS011;63149;48.086;-1.606;2022-12-29T20:17:34;17.25;;;4.72;;
39276;SDS011;63149;48.086;-1.606;2022-12-29T20:20:01;13.80;;;3.90;;
39276;SDS011;63149;48.086;-1.606;2022-12-29T20:22:29;14.38;;;4.70;;
39276;SDS011;63149;48.086;-1.606;2022-12-29T20:24:57;20.58;;;5.07;;
39276;SDS011;63149;48.086;-1.606;2022-12-29T20:27:24;20.02;;;5.35;;
39276;SDS011;63149;48.086;-1.606;2022-12-29T20:29:51;23.88;;;5.57;;
39276;SDS011;63149;48.086;-1.606;2022-12-29T20:32:21;26.35;;;7.10;;
39276;SDS011;63149;48.086;-1.606;2022-12-29T20:34:49;22.95;;;5.43;;
39276;SDS011;63149;48.086;-1.606;2022-12-29T20:37:17;28.83;;;7.15;;
39276;SDS011;63149;48.086;-1.606;2022-12-29T20:39:45;23.17;;;6.65;;
39276;SDS011;63149;48.086;-1.606;2022-12-29T20:42:13;20.17;;;6.78;;
39276;SDS011;63149;48.086;-1.606;2022-12-29T20:44:42;28.05;;;7.00;;
39276;SDS011;63149;48.086;-1.606;2022-12-29T20:47:09;11.93;;;4.85;;
39276;SDS011;63149;48.086;-1.606;2022-12-29T20:49:36;27.45;;;6.13;;
39276;SDS011;63149;48.086;-1.606;2022-12-29T20:52:03;18.25;;;4.40;;
39276;SDS011;63149;48.086;-1.606;2022-12-29T20:54:30;19.83;;;4.22;;
39276;SDS011;63149;48.086;-1.606;2022-12-29T20:56:58;16.92;;;4.80;;
39276;SDS011;63149;48.086;-1.606;2022-12-29T20:59:26;18.33;;;4.38;;
39276;SDS011;63149;48.086;-1.606;2022-12-29T21:01:53;13.07;;;4.38;;
39276;SDS011;63149;48.086;-1.606;2022-12-29T21:04:20;13.18;;;4.13;;
39276;SDS011;63149;48.086;-1.606;2022-12-29T21:06:47;15.07;;;4.55;;
39276;SDS011;63149;48.086;-1.606;2022-12-29T21:09:14;14.55;;;4.28;;
39276;SDS011;63149;48.086;-1.606;2022-12-29T21:11:41;18.98;;;4.47;;
39276;SDS011;63149;48.086;-1.606;2022-12-29T21:14:08;26.70;;;5.13;;